sensor_id;sensor_type;location;lat;lon;timestamp;pressure;altitude;pressure_sealevel;temperature;humidity
71384;BME280;67558;52.166;5.004;2023-06-26T00:01:17;101251.41;;;29.09;40.96
71384;BME280;67558;52.166;5.004;2023-06-26T00:03:42;101251.34;;;29.06;41.00
71384;BME280;67558;52.166;5.004;2023-06-26T00:06:07;101248.59;;;29.02;41.26
71384;BME280;67558;52.166;5.004;2023-06-26T00:08:33;101239.84;;;28.93;41.60
71384;BME280;67558;52.166;5.004;2023-06-26T00:10:58;101241.44;;;28.94;41.46
71384;BME280;67558;52.166;5.004;2023-06-26T00:13:24;101225.16;;;28.78;41.80
71384;BME280;67558;52.166;5.004;2023-06-26T00:15:50;101243.31;;;28.86;41.72
71384;BME280;67558;52.166;5.004;2023-06-26T00:18:15;101240.16;;;28.84;41.91
71384;BME280;67558;52.166;5.004;2023-06-26T00:20:41;101241.31;;;28.79;42.32
71384;BME280;67558;52.166;5.004;2023-06-26T00:23:06;101233.81;;;28.76;42.08
71384;BME280;67558;52.166;5.004;2023-06-26T00:25:33;101230.66;;;28.78;42.03
71384;BME280;67558;52.166;5.004;2023-06-26T00:27:59;101228.22;;;28.69;42.01
71384;BME280;67558;52.166;5.004;2023-06-26T00:30:24;101235.69;;;28.69;42.94
71384;BME280;67558;52.166;5.004;2023-06-26T00:32:49;101228.53;;;28.61;42.52
71384;BME280;67558;52.166;5.004;2023-06-26T00:35:16;101224.47;;;28.47;43.19
71384;BME280;67558;52.166;5.004;2023-06-26T00:37:41;101227.56;;;28.42;43.63
71384;BME280;67558;52.166;5.004;2023-06-26T00:40:07;101237.69;;;28.34;42.99
71384;BME280;67558;52.166;5.004;2023-06-26T00:42:32;101242.47;;;28.41;43.35
71384;BME280;67558;52.166;5.004;2023-06-26T00:44:58;101258.91;;;28.34;43.43
71384;BME280;67558;52.166;5.004;2023-06-26T00:47:23;101252.56;;;28.30;43.61
71384;BME280;67558;52.166;5.004;2023-06-26T00:49:49;101259.75;;;28.38;43.82
71384;BME280;67558;52.166;5.004;2023-06-26T00:52:15;101267.53;;;28.32;43.99
71384;BME280;67558;52.166;5.004;2023-06-26T00:54:41;101263.56;;;28.30;43.57
71384;BME280;67558;52.166;5.004;2023-06-26T00:57:07;101261.16;;;28.25;43.16
71384;BME280;67558;52.166;5.004;2023-06-26T00:59:32;101267.94;;;28.31;42.80
71384;BME280;67558;52.166;5.004;2023-06-26T01:01:58;101272.63;;;28.30;42.51
71384;BME280;67558;52.166;5.004;2023-06-26T01:04:24;101271.41;;;28.28;42.81
71384;BME280;67558;52.166;5.004;2023-06-26T01:06:53;101270.56;;;28.20;42.16
71384;BME280;67558;52.166;5.004;2023-06-26T01:09:19;101278.03;;;28.23;42.05
71384;BME280;67558;52.166;5.004;2023-06-26T01:11:45;101278.38;;;28.18;42.26
71384;BME280;67558;52.166;5.004;2023-06-26T01:14:12;101278.31;;;28.14;42.48
71384;BME280;67558;52.166;5.004;2023-06-26T01:16:38;101275.09;;;28.05;42.18
71384;BME280;67558;52.166;5.004;2023-06-26T01:19:11;101280.59;;;28.05;42.66
71384;BME280;67558;52.166;5.004;2023-06-26T01:21:42;101285.66;;;28.03;42.58
71384;BME280;67558;52.166;5.004;2023-06-26T01:24:15;101285.13;;;27.94;42.20
71384;BME280;67558;52.166;5.004;2023-06-26T01:26:46;101287.47;;;27.92;42.97
71384;BME280;67558;52.166;5.004;2023-06-26T01:29:14;101296.88;;;27.91;42.49
71384;BME280;67558;52.166;5.004;2023-06-26T01:31:40;101301.91;;;27.85;42.85
71384;BME280;67558;52.166;5.004;2023-06-26T01:34:07;101282.47;;;27.74;42.96
71384;BME280;67558;52.166;5.004;2023-06-26T01:36:32;101288.03;;;27.78;42.92
71384;BME280;67558;52.166;5.004;2023-06-26T01:38:57;101291.53;;;27.75;43.08
71384;BME280;67558;52.166;5.004;2023-06-26T01:41:23;101250.75;;;27.50;43.24
71384;BME280;67558;52.166;5.004;2023-06-26T01:49:46;101291.69;;;27.59;44.40
71384;BME280;67558;52.166;5.004;2023-06-26T01:54:54;101306.91;;;27.53;43.98
71384;BME280;67558;52.166;5.004;2023-06-26T01:57:20;101296.66;;;27.50;44.05
71384;BME280;67558;52.166;5.004;2023-06-26T01:59:48;101296.59;;;27.46;44.10
71384;BME280;67558;52.166;5.004;2023-06-26T02:02:13;101295.31;;;27.40;44.69
71384;BME280;67558;52.166;5.004;2023-06-26T02:04:39;101279.50;;;27.30;44.31
71384;BME280;67558;52.166;5.004;2023-06-26T02:07:05;101291.69;;;27.32;44.46
71384;BME280;67558;52.166;5.004;2023-06-26T02:09:30;101290.09;;;27.31;44.54
71384;BME280;67558;52.166;5.004;2023-06-26T02:11:56;101280.53;;;27.22;45.02
71384;BME280;67558;52.166;5.004;2023-06-26T02:14:21;101302.53;;;27.25;44.81
71384;BME280;67558;52.166;5.004;2023-06-26T02:16:47;101296.63;;;27.23;44.96
71384;BME280;67558;52.166;5.004;2023-06-26T02:19:12;101293.44;;;27.21;45.11
71384;BME280;67558;52.166;5.004;2023-06-26T02:21:37;101303.56;;;27.17;45.40
71384;BME280;67558;52.166;5.004;2023-06-26T02:24:04;101309.06;;;27.17;45.23
71384;BME280;67558;52.166;5.004;2023-06-26T02:26:29;101301.19;;;27.15;45.89
71384;BME280;67558;52.166;5.004;2023-06-26T02:28:55;101310.97;;;27.13;45.84
71384;BME280;67558;52.166;5.004;2023-06-26T02:31:20;101300.66;;;27.06;46.12
71384;BME280;67558;52.166;5.004;2023-06-26T02:33:49;101301.78;;;27.05;45.92
71384;BME280;67558;52.166;5.004;2023-06-26T02:36:14;101308.06;;;27.06;46.18
71384;BME280;67558;52.166;5.004;2023-06-26T02:38:40;101313.56;;;27.06;46.28
71384;BME280;67558;52.166;5.004;2023-06-26T02:41:05;101315.84;;;27.00;46.32
71384;BME280;67558;52.166;5.004;2023-06-26T02:43:30;101310.28;;;26.96;46.16
71384;BME280;67558;52.166;5.004;2023-06-26T02:45:56;101310.28;;;26.96;46.17
71384;BME280;67558;52.166;5.004;2023-06-26T02:48:21;101322.41;;;26.95;46.48
71384;BME280;67558;52.166;5.004;2023-06-26T02:50:46;101313.25;;;26.88;46.16
71384;BME280;67558;52.166;5.004;2023-06-26T02:53:12;101319.53;;;26.88;46.37
71384;BME280;67558;52.166;5.004;2023-06-26T02:55:37;101327.75;;;26.88;46.39
71384;BME280;67558;52.166;5.004;2023-06-26T02:58:03;101312.63;;;26.75;46.27
71384;BME280;67558;52.166;5.004;2023-06-26T03:00:28;101335.13;;;26.84;46.33
71384;BME280;67558;52.166;5.004;2023-06-26T03:02:55;101327.94;;;26.76;46.68
71384;BME280;67558;52.166;5.004;2023-06-26T03:05:20;101329.31;;;26.66;46.90
71384;BME280;67558;52.166;5.004;2023-06-26T03:07:46;101341.47;;;26.65;46.70
71384;BME280;67558;52.166;5.004;2023-06-26T03:10:11;101348.81;;;26.61;46.64
71384;BME280;67558;52.166;5.004;2023-06-26T03:12:37;101346.34;;;26.56;46.74
71384;BME280;67558;52.166;5.004;2023-06-26T03:15:02;101340.78;;;26.52;46.73
71384;BME280;67558;52.166;5.004;2023-06-26T03:17:28;101342.66;;;26.48;46.76
71384;BME280;67558;52.166;5.004;2023-06-26T03:19:53;101338.97;;;26.41;46.93
71384;BME280;67558;52.166;5.004;2023-06-26T03:22:18;101348.72;;;26.38;47.07
71384;BME280;67558;52.166;5.004;2023-06-26T03:24:44;101353.34;;;26.34;47.05
71384;BME280;67558;52.166;5.004;2023-06-26T03:27:10;101350.44;;;26.27;47.42
71384;BME280;67558;52.166;5.004;2023-06-26T03:29:37;101356.94;;;26.19;47.39
71384;BME280;67558;52.166;5.004;2023-06-26T03:32:02;101374.69;;;26.25;47.34
71384;BME280;67558;52.166;5.004;2023-06-26T03:34:27;101370.72;;;26.22;47.24
71384;BME280;67558;52.166;5.004;2023-06-26T03:36:53;101373.03;;;26.20;47.58
71384;BME280;67558;52.166;5.004;2023-06-26T03:39:18;101359.94;;;26.13;47.63
71384;BME280;67558;52.166;5.004;2023-06-26T03:41:43;101376.03;;;26.15;47.57
71384;BME280;67558;52.166;5.004;2023-06-26T03:44:09;101377.91;;;26.11;47.75
71384;BME280;67558;52.166;5.004;2023-06-26T03:46:34;101380.28;;;26.12;47.93
71384;BME280;67558;52.166;5.004;2023-06-26T03:48:59;101382.59;;;26.10;47.89
71384;BME280;67558;52.166;5.004;2023-06-26T03:51:25;101381.38;;;26.08;47.75
71384;BME280;67558;52.166;5.004;2023-06-26T03:53:50;101389.25;;;26.09;47.83
71384;BME280;67558;52.166;5.004;2023-06-26T03:56:16;101373.34;;;25.99;48.16
71384;BME280;67558;52.166;5.004;2023-06-26T03:58:41;101384.00;;;26.04;48.01
71384;BME280;67558;52.166;5.004;2023-06-26T04:01:07;101382.34;;;26.00;47.80
71384;BME280;67558;52.166;5.004;2023-06-26T04:03:32;101388.63;;;26.00;47.93
71384;BME280;67558;52.166;5.004;2023-06-26T04:05:57;101388.19;;;25.98;47.98
71384;BME280;67558;52.166;5.004;2023-06-26T04:08:24;101387.38;;;25.98;48.00
71384;BME280;67558;52.166;5.004;2023-06-26T04:10:51;101400.66;;;25.95;47.69
71384;BME280;67558;52.166;5.004;2023-06-26T04:13:17;101404.63;;;25.98;47.95
71384;BME280;67558;52.166;5.004;2023-06-26T04:15:42;101400.56;;;25.92;47.79
71384;BME280;67558;52.166;5.004;2023-06-26T04:18:08;101402.16;;;25.93;47.70
71384;BME280;67558;52.166;5.004;2023-06-26T04:20:38;101407.31;;;25.94;47.65
71384;BME280;67558;52.166;5.004;2023-06-26T04:23:04;101412.50;;;26.00;47.65
71384;BME280;67558;52.166;5.004;2023-06-26T04:25:29;101411.72;;;25.99;47.29
71384;BME280;67558;52.166;5.004;2023-06-26T04:27:55;101423.56;;;26.03;47.60
71384;BME280;67558;52.166;5.004;2023-06-26T04:30:20;101427.25;;;26.11;47.23
71384;BME280;67558;52.166;5.004;2023-06-26T04:32:45;101431.75;;;26.19;47.26
71384;BME280;67558;52.166;5.004;2023-06-26T04:35:11;101440.84;;;26.23;47.18
71384;BME280;67558;52.166;5.004;2023-06-26T04:37:36;101429.53;;;26.25;47.01
71384;BME280;67558;52.166;5.004;2023-06-26T04:40:02;101445.59;;;26.26;46.95
71384;BME280;67558;52.166;5.004;2023-06-26T04:42:29;101444.38;;;26.24;47.24
71384;BME280;67558;52.166;5.004;2023-06-26T04:44:54;101449.78;;;26.20;46.93
71384;BME280;67558;52.166;5.004;2023-06-26T04:47:20;101445.34;;;26.15;47.20
71384;BME280;67558;52.166;5.004;2023-06-26T04:49:45;101453.44;;;26.08;47.16
71384;BME280;67558;52.166;5.004;2023-06-26T04:52:13;101456.75;;;26.18;46.86
71384;BME280;67558;52.166;5.004;2023-06-26T04:54:39;101462.88;;;26.11;47.05
71384;BME280;67558;52.166;5.004;2023-06-26T04:57:04;101454.22;;;26.09;46.95
71384;BME280;67558;52.166;5.004;2023-06-26T04:59:30;101451.91;;;26.11;47.00
71384;BME280;67558;52.166;5.004;2023-06-26T05:01:56;101450.69;;;26.08;47.02
71384;BME280;67558;52.166;5.004;2023-06-26T05:04:21;101466.59;;;26.19;46.59
71384;BME280;67558;52.166;5.004;2023-06-26T05:06:48;101470.84;;;26.16;46.99
71384;BME280;67558;52.166;5.004;2023-06-26T05:09:13;101470.91;;;26.20;46.69
71384;BME280;67558;52.166;5.004;2023-06-26T05:11:39;101468.16;;;26.20;46.40
71384;BME280;67558;52.166;5.004;2023-06-26T05:14:04;101478.44;;;26.23;46.48
71384;BME280;67558;52.166;5.004;2023-06-26T05:16:32;101477.56;;;26.19;46.78
71384;BME280;67558;52.166;5.004;2023-06-26T05:18:57;101473.28;;;26.37;46.05
71384;BME280;67558;52.166;5.004;2023-06-26T05:21:23;101468.72;;;26.25;46.17
71384;BME280;67558;52.166;5.004;2023-06-26T05:23:49;101478.44;;;26.23;46.35
71384;BME280;67558;52.166;5.004;2023-06-26T05:26:17;101468.91;;;26.17;46.44
71384;BME280;67558;52.166;5.004;2023-06-26T05:28:42;101481.88;;;26.20;46.42
71384;BME280;67558;52.166;5.004;2023-06-26T05:31:13;101470.13;;;26.19;46.55
71384;BME280;67558;52.166;5.004;2023-06-26T05:33:44;101480.22;;;26.31;46.28
71384;BME280;67558;52.166;5.004;2023-06-26T05:36:12;101480.44;;;26.42;46.17
71384;BME280;67558;52.166;5.004;2023-06-26T05:38:39;101495.31;;;26.57;46.42
71384;BME280;67558;52.166;5.004;2023-06-26T05:41:05;101499.97;;;26.72;45.83
71384;BME280;67558;52.166;5.004;2023-06-26T05:43:30;101501.75;;;26.84;45.57
71384;BME280;67558;52.166;5.004;2023-06-26T05:45:56;101504.38;;;26.96;45.62
71384;BME280;67558;52.166;5.004;2023-06-26T05:48:23;101484.22;;;26.88;45.38
71384;BME280;67558;52.166;5.004;2023-06-26T05:50:49;101511.53;;;27.20;45.04
71384;BME280;67558;52.166;5.004;2023-06-26T05:53:14;101523.75;;;27.23;44.35
71384;BME280;67558;52.166;5.004;2023-06-26T05:55:40;101529.97;;;27.39;43.98
71384;BME280;67558;52.166;5.004;2023-06-26T05:58:10;101526.22;;;27.47;44.44
71384;BME280;67558;52.166;5.004;2023-06-26T06:00:35;101532.56;;;27.51;43.80
71384;BME280;67558;52.166;5.004;2023-06-26T06:03:01;101528.16;;;27.47;43.73
71384;BME280;67558;52.166;5.004;2023-06-26T06:05:26;101541.97;;;27.31;44.02
71384;BME280;67558;52.166;5.004;2023-06-26T06:07:51;101545.94;;;27.53;44.16
71384;BME280;67558;52.166;5.004;2023-06-26T06:10:17;101560.19;;;27.58;43.73
71384;BME280;67558;52.166;5.004;2023-06-26T06:12:42;101502.31;;;27.28;43.71
71384;BME280;67558;52.166;5.004;2023-06-26T06:15:08;101544.00;;;27.53;43.64
71384;BME280;67558;52.166;5.004;2023-06-26T06:17:33;101549.63;;;27.61;43.28
71384;BME280;67558;52.166;5.004;2023-06-26T06:19:58;101547.72;;;27.65;43.51
71384;BME280;67558;52.166;5.004;2023-06-26T06:22:24;101555.66;;;27.70;43.09
71384;BME280;67558;52.166;5.004;2023-06-26T06:24:50;101564.28;;;27.68;43.05
71384;BME280;67558;52.166;5.004;2023-06-26T06:27:16;101571.06;;;27.74;43.45
71384;BME280;67558;52.166;5.004;2023-06-26T06:29:41;101582.06;;;27.74;43.79
71384;BME280;67558;52.166;5.004;2023-06-26T06:32:07;101584.31;;;27.69;43.35
71384;BME280;67558;52.166;5.004;2023-06-26T06:34:32;101577.81;;;27.57;43.72
71384;BME280;67558;52.166;5.004;2023-06-26T06:36:57;101586.28;;;27.49;43.34
71384;BME280;67558;52.166;5.004;2023-06-26T06:39:23;101601.63;;;27.50;43.66
71384;BME280;67558;52.166;5.004;2023-06-26T06:41:48;101597.22;;;27.45;43.57
71384;BME280;67558;52.166;5.004;2023-06-26T06:44:13;101610.28;;;27.52;43.48
71384;BME280;67558;52.166;5.004;2023-06-26T06:46:39;101609.50;;;27.51;43.35
71384;BME280;67558;52.166;5.004;2023-06-26T06:49:04;101602.13;;;27.55;43.39
71384;BME280;67558;52.166;5.004;2023-06-26T06:51:29;101600.22;;;27.60;43.12
71384;BME280;67558;52.166;5.004;2023-06-26T06:53:55;101608.91;;;27.62;43.39
71384;BME280;67558;52.166;5.004;2023-06-26T06:56:20;101609.28;;;27.60;43.51
71384;BME280;67558;52.166;5.004;2023-06-26T06:58:45;101610.06;;;27.61;43.10
71384;BME280;67558;52.166;5.004;2023-06-26T07:01:12;101624.81;;;27.72;43.66
71384;BME280;67558;52.166;5.004;2023-06-26T07:03:38;101617.94;;;27.82;43.18
71384;BME280;67558;52.166;5.004;2023-06-26T07:06:04;101625.44;;;27.85;42.97
71384;BME280;67558;52.166;5.004;2023-06-26T07:08:29;101627.53;;;27.88;42.90
71384;BME280;67558;52.166;5.004;2023-06-26T07:10:55;101626.97;;;27.82;43.00
71384;BME280;67558;52.166;5.004;2023-06-26T07:13:22;101628.06;;;27.77;43.02
71384;BME280;67558;52.166;5.004;2023-06-26T07:15:47;101638.41;;;27.84;42.83
71384;BME280;67558;52.166;5.004;2023-06-26T07:18:13;101629.97;;;27.93;42.82
71384;BME280;67558;52.166;5.004;2023-06-26T07:20:38;101634.03;;;28.03;42.69
71384;BME280;67558;52.166;5.004;2023-06-26T07:23:04;101638.16;;;28.12;42.54
71384;BME280;67558;52.166;5.004;2023-06-26T07:25:29;101644.53;;;28.16;42.59
71384;BME280;67558;52.166;5.004;2023-06-26T07:27:54;101633.97;;;28.18;41.99
71384;BME280;67558;52.166;5.004;2023-06-26T07:30:20;101635.19;;;28.21;41.89
71384;BME280;67558;52.166;5.004;2023-06-26T07:32:45;101640.44;;;28.30;41.52
71384;BME280;67558;52.166;5.004;2023-06-26T07:35:10;101652.84;;;28.43;41.59
71384;BME280;67558;52.166;5.004;2023-06-26T07:37:36;101651.25;;;28.42;41.17
71384;BME280;67558;52.166;5.004;2023-06-26T07:40:01;101658.72;;;28.42;41.19
71384;BME280;67558;52.166;5.004;2023-06-26T07:42:27;101656.25;;;28.36;41.48
71384;BME280;67558;52.166;5.004;2023-06-26T07:44:52;101663.84;;;28.43;41.14
71384;BME280;67558;52.166;5.004;2023-06-26T07:47:18;101657.13;;;28.41;40.98
71384;BME280;67558;52.166;5.004;2023-06-26T07:49:43;101669.34;;;28.43;41.41
71384;BME280;67558;52.166;5.004;2023-06-26T07:52:09;101675.69;;;28.47;40.88
71384;BME280;67558;52.166;5.004;2023-06-26T07:54:36;101673.28;;;28.42;40.63
71384;BME280;67558;52.166;5.004;2023-06-26T07:57:03;101673.88;;;28.32;40.57
71384;BME280;67558;52.166;5.004;2023-06-26T07:59:30;101672.28;;;28.31;40.93
71384;BME280;67558;52.166;5.004;2023-06-26T08:01:57;101676.13;;;28.26;40.47
71384;BME280;67558;52.166;5.004;2023-06-26T08:04:24;101679.53;;;28.19;40.34
71384;BME280;67558;52.166;5.004;2023-06-26T08:06:52;101687.78;;;28.19;40.23
71384;BME280;67558;52.166;5.004;2023-06-26T08:09:19;101685.78;;;28.16;40.36
71384;BME280;67558;52.166;5.004;2023-06-26T08:11:45;101692.44;;;28.15;40.26
71384;BME280;67558;52.166;5.004;2023-06-26T08:14:11;101683.31;;;28.11;40.13
71384;BME280;67558;52.166;5.004;2023-06-26T08:16:40;101705.03;;;28.16;39.97
71384;BME280;67558;52.166;5.004;2023-06-26T08:19:07;101703.06;;;28.17;40.49
71384;BME280;67558;52.166;5.004;2023-06-26T08:21:32;101698.34;;;28.17;39.91
71384;BME280;67558;52.166;5.004;2023-06-26T08:23:57;101705.91;;;28.21;39.87
71384;BME280;67558;52.166;5.004;2023-06-26T08:26:23;101710.63;;;28.20;39.82
71384;BME280;67558;52.166;5.004;2023-06-26T08:28:48;101708.66;;;28.21;40.07
71384;BME280;67558;52.166;5.004;2023-06-26T08:31:14;101712.53;;;28.19;40.22
71384;BME280;67558;52.166;5.004;2023-06-26T08:33:39;101715.59;;;28.14;39.81
71384;BME280;67558;52.166;5.004;2023-06-26T08:36:04;101708.88;;;28.12;40.02
71384;BME280;67558;52.166;5.004;2023-06-26T08:38:30;101712.41;;;28.12;39.80
71384;BME280;67558;52.166;5.004;2023-06-26T08:40:55;101718.94;;;28.04;39.98
71384;BME280;67558;52.166;5.004;2023-06-26T08:43:20;101717.28;;;28.00;39.75
71384;BME280;67558;52.166;5.004;2023-06-26T08:45:47;101723.66;;;28.04;40.10
71384;BME280;67558;52.166;5.004;2023-06-26T08:48:17;101702.78;;;28.03;39.42
71384;BME280;67558;52.166;5.004;2023-06-26T08:50:43;101725.81;;;28.14;39.59
71384;BME280;67558;52.166;5.004;2023-06-26T08:53:27;101728.63;;;28.17;38.96
71384;BME280;67558;52.166;5.004;2023-06-26T08:55:57;101716.03;;;28.16;39.04
71384;BME280;67558;52.166;5.004;2023-06-26T08:58:22;101730.41;;;28.29;39.37
71384;BME280;67558;52.166;5.004;2023-06-26T09:00:48;101743.16;;;28.37;39.07
71384;BME280;67558;52.166;5.004;2023-06-26T09:03:15;101740.97;;;28.47;39.14
71384;BME280;67558;52.166;5.004;2023-06-26T09:05:40;101735.03;;;28.45;38.61
71384;BME280;67558;52.166;5.004;2023-06-26T09:08:06;101753.06;;;28.42;39.09
71384;BME280;67558;52.166;5.004;2023-06-26T09:10:32;101747.06;;;28.36;38.56
71384;BME280;67558;52.166;5.004;2023-06-26T09:12:58;101756.03;;;28.33;38.34
71384;BME280;67558;52.166;5.004;2023-06-26T09:15:26;101759.91;;;28.29;38.29
71384;BME280;67558;52.166;5.004;2023-06-26T09:17:56;101739.63;;;28.17;37.77
71384;BME280;67558;52.166;5.004;2023-06-26T09:20:22;101764.88;;;28.23;38.09
71384;BME280;67558;52.166;5.004;2023-06-26T09:22:48;101755.63;;;28.12;37.76
71384;BME280;67558;52.166;5.004;2023-06-26T09:25:13;101757.50;;;28.08;37.62
71384;BME280;67558;52.166;5.004;2023-06-26T09:27:39;101753.47;;;28.02;38.18
71384;BME280;67558;52.166;5.004;2023-06-26T09:30:05;101759.09;;;28.09;37.84
71384;BME280;67558;52.166;5.004;2023-06-26T09:32:36;101763.50;;;28.13;38.25
71384;BME280;67558;52.166;5.004;2023-06-26T09:35:03;101765.31;;;28.25;38.34
71384;BME280;67558;52.166;5.004;2023-06-26T09:37:29;101770.38;;;28.23;37.94
71384;BME280;67558;52.166;5.004;2023-06-26T09:39:54;101783.19;;;27.96;37.71
71384;BME280;67558;52.166;5.004;2023-06-26T09:42:20;101790.50;;;28.08;37.49
71384;BME280;67558;52.166;5.004;2023-06-26T09:44:46;101786.97;;;28.07;37.48
71384;BME280;67558;52.166;5.004;2023-06-26T09:47:12;101743.56;;;27.81;36.80
71384;BME280;67558;52.166;5.004;2023-06-26T09:49:41;101803.25;;;27.81;37.58
71384;BME280;67558;52.166;5.004;2023-06-26T09:52:10;101786.38;;;27.63;37.93
71384;BME280;67558;52.166;5.004;2023-06-26T09:54:38;101783.19;;;27.61;37.77
71384;BME280;67558;52.166;5.004;2023-06-26T09:57:10;101802.09;;;27.62;37.48
71384;BME280;67558;52.166;5.004;2023-06-26T09:59:36;101811.03;;;27.59;38.17
71384;BME280;67558;52.166;5.004;2023-06-26T10:02:02;101805.81;;;27.54;38.38
71384;BME280;67558;52.166;5.004;2023-06-26T10:04:27;101805.03;;;27.53;38.06
71384;BME280;67558;52.166;5.004;2023-06-26T10:06:56;101821.56;;;27.57;37.80
71384;BME280;67558;52.166;5.004;2023-06-26T10:09:22;101815.38;;;27.60;37.79
71384;BME280;67558;52.166;5.004;2023-06-26T10:11:56;101817.25;;;27.56;37.19
71384;BME280;67558;52.166;5.004;2023-06-26T10:14:26;101827.25;;;27.48;37.02
71384;BME280;67558;52.166;5.004;2023-06-26T10:16:52;101825.34;;;27.84;36.70
71384;BME280;67558;52.166;5.004;2023-06-26T10:19:19;101828.34;;;27.95;36.17
71384;BME280;67558;52.166;5.004;2023-06-26T10:21:51;101824.88;;;27.98;36.37
71384;BME280;67558;52.166;5.004;2023-06-26T10:24:18;101838.25;;;28.00;36.09
71384;BME280;67558;52.166;5.004;2023-06-26T10:26:45;101849.13;;;27.92;36.34
71384;BME280;67558;52.166;5.004;2023-06-26T10:29:14;101849.75;;;27.86;36.17
71384;BME280;67558;52.166;5.004;2023-06-26T10:31:43;101840.34;;;27.87;36.50
71384;BME280;67558;52.166;5.004;2023-06-26T10:34:11;101825.25;;;27.81;36.42
71384;BME280;67558;52.166;5.004;2023-06-26T10:36:36;101842.31;;;27.86;36.69
71384;BME280;67558;52.166;5.004;2023-06-26T10:39:05;101845.72;;;27.83;36.13
71384;BME280;67558;52.166;5.004;2023-06-26T10:41:39;101843.34;;;27.82;36.23
71384;BME280;67558;52.166;5.004;2023-06-26T10:44:10;101841.84;;;27.84;36.91
71384;BME280;67558;52.166;5.004;2023-06-26T10:46:55;101839.56;;;27.86;36.92
71384;BME280;67558;52.166;5.004;2023-06-26T10:49:28;101854.44;;;27.85;36.29
71384;BME280;67558;52.166;5.004;2023-06-26T10:51:54;101849.81;;;27.89;36.10
71384;BME280;67558;52.166;5.004;2023-06-26T10:54:23;101869.44;;;27.88;36.63
71384;BME280;67558;52.166;5.004;2023-06-26T10:56:55;101856.03;;;27.86;36.42
71384;BME280;67558;52.166;5.004;2023-06-26T10:59:24;101862.84;;;27.76;36.34
71384;BME280;67558;52.166;5.004;2023-06-26T11:02:04;101865.16;;;27.74;35.88
71384;BME280;67558;52.166;5.004;2023-06-26T11:07:21;101864.13;;;27.63;36.08
71384;BME280;67558;52.166;5.004;2023-06-26T11:10:09;101876.72;;;27.64;36.08
71384;BME280;67558;52.166;5.004;2023-06-26T11:12:39;101876.72;;;27.64;35.87
71384;BME280;67558;52.166;5.004;2023-06-26T11:15:26;101850.91;;;27.53;35.58
71384;BME280;67558;52.166;5.004;2023-06-26T11:17:53;101887.09;;;27.71;35.68
71384;BME280;67558;52.166;5.004;2023-06-26T11:20:18;101884.59;;;27.66;36.29
71384;BME280;67558;52.166;5.004;2023-06-26T11:22:44;101887.78;;;27.68;35.93
71384;BME280;67558;52.166;5.004;2023-06-26T11:25:10;101894.16;;;27.72;35.09
71384;BME280;67558;52.166;5.004;2023-06-26T11:27:39;101890.72;;;27.75;35.26
71384;BME280;67558;52.166;5.004;2023-06-26T11:30:06;101903.56;;;27.55;35.17
71384;BME280;67558;52.166;5.004;2023-06-26T11:32:31;101905.06;;;27.68;35.51
71384;BME280;67558;52.166;5.004;2023-06-26T11:35:00;101894.69;;;27.77;34.92
71384;BME280;67558;52.166;5.004;2023-06-26T11:37:26;101915.38;;;27.71;34.73
71384;BME280;67558;52.166;5.004;2023-06-26T11:39:51;101915.00;;;27.73;34.67
71384;BME280;67558;52.166;5.004;2023-06-26T11:42:18;101916.16;;;27.72;35.08
71384;BME280;67558;52.166;5.004;2023-06-26T11:44:44;101910.47;;;27.49;35.31
71384;BME280;67558;52.166;5.004;2023-06-26T11:47:19;101915.25;;;27.36;35.70
71384;BME280;67558;52.166;5.004;2023-06-26T11:49:46;101936.91;;;27.53;35.12
71384;BME280;67558;52.166;5.004;2023-06-26T11:52:12;101920.78;;;27.52;35.08
71384;BME280;67558;52.166;5.004;2023-06-26T11:54:38;101929.03;;;27.08;35.52
71384;BME280;67558;52.166;5.004;2023-06-26T11:57:04;101952.03;;;27.03;35.37
71384;BME280;67558;52.166;5.004;2023-06-26T11:59:37;101946.91;;;27.30;35.02
71384;BME280;67558;52.166;5.004;2023-06-26T12:04:32;101953.13;;;27.43;34.47
71384;BME280;67558;52.166;5.004;2023-06-26T12:06:59;101963.41;;;27.46;34.45
71384;BME280;67558;52.166;5.004;2023-06-26T12:09:26;101965.00;;;27.47;34.32
71384;BME280;67558;52.166;5.004;2023-06-26T12:11:53;101971.66;;;27.46;34.35
71384;BME280;67558;52.166;5.004;2023-06-26T12:14:20;101946.31;;;27.36;34.56
71384;BME280;67558;52.166;5.004;2023-06-26T12:16:46;101957.81;;;27.42;33.85
71384;BME280;67558;52.166;5.004;2023-06-26T12:19:12;101955.88;;;27.43;34.38
71384;BME280;67558;52.166;5.004;2023-06-26T12:24:04;101959.75;;;27.42;34.34
71384;BME280;67558;52.166;5.004;2023-06-26T12:26:30;101968.19;;;27.49;34.57
71384;BME280;67558;52.166;5.004;2023-06-26T12:29:06;101974.41;;;27.46;34.88
71384;BME280;67558;52.166;5.004;2023-06-26T12:31:32;101972.09;;;27.48;35.03
71384;BME280;67558;52.166;5.004;2023-06-26T12:33:58;101986.72;;;27.52;34.51
71384;BME280;67558;52.166;5.004;2023-06-26T12:36:23;101975.53;;;27.45;34.50
71384;BME280;67558;52.166;5.004;2023-06-26T12:38:49;101967.66;;;27.43;34.72
71384;BME280;67558;52.166;5.004;2023-06-26T12:41:15;101987.53;;;27.52;35.23
71384;BME280;67558;52.166;5.004;2023-06-26T12:43:41;101994.63;;;27.53;35.12
71384;BME280;67558;52.166;5.004;2023-06-26T12:46:07;101994.25;;;27.55;34.58
71384;BME280;67558;52.166;5.004;2023-06-26T12:48:37;101993.47;;;27.54;34.58
71384;BME280;67558;52.166;5.004;2023-06-26T12:51:09;101993.34;;;27.51;34.71
71384;BME280;67558;52.166;5.004;2023-06-26T12:53:35;101990.09;;;27.45;35.06
71384;BME280;67558;52.166;5.004;2023-06-26T12:56:00;101997.50;;;27.45;34.79
71384;BME280;67558;52.166;5.004;2023-06-26T12:58:25;101990.69;;;27.39;35.11
71384;BME280;67558;52.166;5.004;2023-06-26T13:00:51;101991.84;;;27.37;34.83
71384;BME280;67558;52.166;5.004;2023-06-26T13:03:19;101984.53;;;27.29;35.01